Pagina principale
Immagini satellite Previsioni 15 giorniClimaMeteomar Cicloni Fulmine AeroportiFAQ Bollettino Informazioni
Tempo : Europa Africa America settentrionale America meridionale Asia Australia-Oceania Altri
Lingue Contatto

Genova, Italia

Sestri

latitudine: 44-25N, longitudine: 008-51E, altezza: 2 m


METAR: LIMJ 241050Z VRB02KT CAVOK 22/07 Q1014
TAF: LIMJ 240500Z 2406/2506 04007KT CAVOK TEMPO 2409/2415 16010KT

Ora: 13:15 (11:15 UTC)

Osservazione

Il bollettino è stato emesso 25 minuti fa, alle 10:50 UTC
Vento 2 kt da direzioni variabili
Temperature 22°C
Umidità 38%
Pressione 1014 hPa
Visibilità 10 km o più
nessuna nube inferiore a 1500 m e nessun cumulonembo

Cambiare le unità

Previsione

Il bollettino è stato emesso 6 ore e 15 minuti fa, alle 05:00 UTC
Previsione valida dal 24 alle 06 UTC al 25 alle 06 UTC
Vento 7 kt da nord-est
Visibilità 10 km o più
nessuna nube inferiore a 1500 m e nessun cumulonembo
Temporaneamente
dal 24 alle 09 UTC al 24 alle 15 UTC
Vento 10 kt da sud/sud-est
Le informazioni contenute in questo sito formano oggetto di una clausola di esclusione di responsabilità
Tempo : Europa Africa America settentrionale America meridionale Asia Australia-Oceania Altri
Immagini satellite Previsioni 15 giorniClimaMeteomar Cicloni Fulmine AeroportiFAQ Lingue Contatto Bollettino Informazioni